createdAt,value
2022-08-20T00:01:25.625Z,28.01
2022-08-20T00:03:55.132Z,28.01
2022-08-20T00:06:25.531Z,27.99
2022-08-20T00:08:54.592Z,27.99
2022-08-20T00:11:26.167Z,28.02
2022-08-20T00:14:02.883Z,27.92
2022-08-20T00:16:36.633Z,27.93
2022-08-20T00:19:07.831Z,27.95
2022-08-20T00:21:37.813Z,27.96
2022-08-20T00:28:37.526Z,27.82
2022-08-20T00:31:11.214Z,27.79
2022-08-20T00:33:40.767Z,27.73
2022-08-20T00:36:13.126Z,27.73
2022-08-20T00:38:45.534Z,27.82
2022-08-20T00:41:19.664Z,27.76
2022-08-20T00:43:51.986Z,27.71
2022-08-20T00:52:42.094Z,27.59
2022-08-20T00:55:24.979Z,27.64
2022-08-20T00:58:01.841Z,27.38
2022-08-20T01:00:37.850Z,27.48
2022-08-20T01:03:09.934Z,27.47
2022-08-20T01:05:40.379Z,27.52
2022-08-20T01:08:09.885Z,27.49
2022-08-20T01:10:45.112Z,27.54
2022-08-20T01:13:20.722Z,27.48
2022-08-20T01:15:54.546Z,27.54
2022-08-20T01:18:27.409Z,27.58
2022-08-20T01:20:59.846Z,27.50
2022-08-20T01:44:52.914Z,27.44
2022-08-20T01:47:27.649Z,27.37
2022-08-20T01:49:59.902Z,27.35
2022-08-20T01:52:34.638Z,27.27
2022-08-20T01:55:05.456Z,27.22
2022-08-20T01:57:37.575Z,27.17
2022-08-20T02:00:19.044Z,27.14
2022-08-20T02:07:53.685Z,26.92
2022-08-20T02:10:24.255Z,26.97
2022-08-20T02:12:53.591Z,26.93
2022-08-20T02:15:34.643Z,27.01
2022-08-20T02:18:08.688Z,26.90
2022-08-20T02:20:40.163Z,26.91
2022-08-20T02:38:50.315Z,26.72
2022-08-20T02:41:21.597Z,26.66
2022-08-20T02:43:51.302Z,26.68
2022-08-20T02:46:20.743Z,26.39
2022-08-20T02:48:49.747Z,26.36
2022-08-20T02:51:30.544Z,26.34
2022-08-20T02:54:01.741Z,26.29
2022-08-20T02:56:31.193Z,26.38
2022-08-20T02:59:00.187Z,26.39
2022-08-20T03:01:31.057Z,26.32
2022-08-20T03:04:00.232Z,26.21
2022-08-20T03:06:29.777Z,26.19
2022-08-20T03:09:00.870Z,26.19
2022-08-20T03:16:31.024Z,26.44
2022-08-20T03:19:00.196Z,26.39
2022-08-20T03:21:29.296Z,26.40
2022-08-20T03:29:41.938Z,26.53
2022-08-20T03:32:11.038Z,26.37
2022-08-20T03:34:40.318Z,26.27
2022-08-20T03:37:11.634Z,26.26
2022-08-20T03:39:41.126Z,26.34
2022-08-20T03:42:10.381Z,26.17
2022-08-20T03:44:39.520Z,26.32
2022-08-20T03:47:10.120Z,26.33
2022-08-20T03:49:39.293Z,26.25
2022-08-20T03:52:08.701Z,26.23
2022-08-20T03:54:38.277Z,26.31
2022-08-20T03:57:12.972Z,26.38
2022-08-20T03:59:44.545Z,26.33
2022-08-20T04:02:14.937Z,26.40
2022-08-20T04:04:44.164Z,26.48
2022-08-20T04:07:15.354Z,26.51
2022-08-20T04:09:44.822Z,26.49
2022-08-20T04:12:14.319Z,26.47
2022-08-20T04:14:44.191Z,26.48
2022-08-20T04:17:15.287Z,26.49
2022-08-20T04:19:45.528Z,26.22
2022-08-20T04:22:14.997Z,26.19
2022-08-20T04:24:44.843Z,26.17
2022-08-20T04:32:18.200Z,26.30
2022-08-20T04:34:50.042Z,26.35
2022-08-20T04:37:22.411Z,26.40
2022-08-20T04:44:54.005Z,26.13
2022-08-20T04:52:40.888Z,26.50
2022-08-20T04:55:12.103Z,26.42
2022-08-20T04:57:41.416Z,26.26
2022-08-20T05:00:15.241Z,26.27
2022-08-20T05:23:49.433Z,26.13
2022-08-20T05:31:12.320Z,26.42
2022-08-20T05:33:41.536Z,26.73
2022-08-20T05:36:10.601Z,26.92
2022-08-20T05:38:44.860Z,26.57
2022-08-20T05:41:28.462Z,27.02
2022-08-20T05:44:01.955Z,26.91
2022-08-20T05:46:32.317Z,26.67
2022-08-20T05:49:02.490Z,26.51
2022-08-20T05:51:32.424Z,26.88
2022-08-20T05:54:01.984Z,26.85
2022-08-20T05:56:33.094Z,27.01
2022-08-20T05:59:04.916Z,27.04
2022-08-20T06:01:36.378Z,27.12
2022-08-20T06:04:23.982Z,27.26
2022-08-20T06:11:48.452Z,27.38
2022-08-20T06:14:19.139Z,27.93
2022-08-20T06:16:57.354Z,28.02
2022-08-20T06:19:32.495Z,28.08
2022-08-20T06:22:02.464Z,27.72
2022-08-20T06:24:46.688Z,27.88
2022-08-20T06:32:40.259Z,28.41
2022-08-20T06:35:11.562Z,28.19
2022-08-20T06:37:41.446Z,28.07
2022-08-20T06:40:14.678Z,28.19
2022-08-20T06:42:48.626Z,28.18
2022-08-20T06:45:24.506Z,28.45
2022-08-20T06:47:58.063Z,28.29
2022-08-20T06:50:31.194Z,28.46
2022-08-20T06:53:01.311Z,28.33
2022-08-20T06:55:30.719Z,28.32
2022-08-20T06:58:01.395Z,28.24
2022-08-20T07:00:32.951Z,28.58
2022-08-20T07:03:04.398Z,28.69
2022-08-20T07:05:37.397Z,28.55
2022-08-20T07:08:07.373Z,28.51
2022-08-20T07:10:36.442Z,28.66
2022-08-20T07:13:06.484Z,28.48
2022-08-20T07:15:35.963Z,28.29
2022-08-20T07:18:08.023Z,28.15
2022-08-20T07:20:40.522Z,27.85
2022-08-20T07:23:12.171Z,28.07
2022-08-20T07:25:42.908Z,28.10
2022-08-20T07:38:58.469Z,28.79
2022-08-20T07:41:27.860Z,29.01
2022-08-20T07:43:57.069Z,29.14
2022-08-20T07:46:31.132Z,28.88
2022-08-20T07:49:01.427Z,28.98
2022-08-20T07:51:30.742Z,28.81
2022-08-20T07:54:01.025Z,28.86
2022-08-20T07:56:30.320Z,28.97
2022-08-20T07:59:01.632Z,28.89
2022-08-20T08:01:33.357Z,29.55
2022-08-20T08:04:02.684Z,30.25
2022-08-20T08:06:33.157Z,29.82
2022-08-20T08:09:06.914Z,29.82
2022-08-20T08:26:22.528Z,29.93
2022-08-20T08:28:51.700Z,30.13
2022-08-20T08:31:20.831Z,29.80
2022-08-20T08:42:26.120Z,29.67
2022-08-20T08:44:55.662Z,29.72
2022-08-20T08:47:34.696Z,29.95
2022-08-20T08:50:05.642Z,30.08
2022-08-20T08:52:41.115Z,29.83
2022-08-20T08:55:19.560Z,29.71
2022-08-20T08:57:51.201Z,29.71
2022-08-20T09:00:23.226Z,29.41
2022-08-20T09:02:59.441Z,29.88
2022-08-20T09:05:36.675Z,29.59
2022-08-20T09:08:16.320Z,29.95
2022-08-20T09:10:46.398Z,29.80
2022-08-20T09:18:20.124Z,29.64
2022-08-20T09:20:49.493Z,29.39
2022-08-20T09:23:18.438Z,29.72
2022-08-20T09:25:47.499Z,29.66
2022-08-20T09:32:52.358Z,30.52
2022-08-20T09:35:22.982Z,30.69
2022-08-20T09:37:52.839Z,31.11
2022-08-20T09:40:22.835Z,30.76
2022-08-20T09:42:52.443Z,31.08
2022-08-20T09:45:22.404Z,31.09
2022-08-20T09:47:55.106Z,31.35
2022-08-20T09:50:45.520Z,30.85
2022-08-20T09:53:16.134Z,30.85
2022-08-20T09:55:46.783Z,31.17
2022-08-20T10:02:46.337Z,31.23
2022-08-20T10:05:16.248Z,31.43
2022-08-20T10:07:46.905Z,32.18
2022-08-20T10:10:17.274Z,32.62
2022-08-20T10:12:50.516Z,32.88
2022-08-20T10:15:22.170Z,33.49
2022-08-20T10:17:51.430Z,32.64
2022-08-20T10:20:20.677Z,33.10
2022-08-20T10:22:51.359Z,32.96
2022-08-20T10:25:20.684Z,33.42
2022-08-20T10:32:21.519Z,33.42
2022-08-20T10:34:50.740Z,34.34
2022-08-20T10:37:23.972Z,34.75
2022-08-20T10:39:55.238Z,33.32
2022-08-20T10:42:24.412Z,34.23
2022-08-20T10:44:53.627Z,34.51
2022-08-20T10:47:25.186Z,37.23
2022-08-20T10:49:56.888Z,37.40
2022-08-20T10:52:26.914Z,36.85
2022-08-20T10:54:58.029Z,39.33
2022-08-20T10:57:29.834Z,37.19
2022-08-20T11:00:01.285Z,37.06
2022-08-20T11:02:34.261Z,36.69
2022-08-20T11:05:04.194Z,37.94
2022-08-20T11:07:55.060Z,39.03
2022-08-20T11:10:29.196Z,37.86
2022-08-20T11:12:58.663Z,39.31
2022-08-20T11:15:28.068Z,40.97
2022-08-20T11:17:57.814Z,41.13
2022-08-20T11:20:28.102Z,43.94
2022-08-20T11:22:57.305Z,42.09
2022-08-20T11:25:28.588Z,41.39
2022-08-20T11:27:58.933Z,40.47
2022-08-20T11:30:32.799Z,41.36
2022-08-20T11:33:03.718Z,41.70
2022-08-20T11:35:48.289Z,39.29
2022-08-20T11:38:19.780Z,39.34
2022-08-20T11:40:50.310Z,40.83
2022-08-20T11:43:19.715Z,40.60
2022-08-20T11:45:51.294Z,41.37
2022-08-20T11:48:21.020Z,39.00
2022-08-20T11:50:51.682Z,39.57
2022-08-20T11:53:22.211Z,37.65
2022-08-20T11:55:53.188Z,36.95
2022-08-20T11:58:22.368Z,36.89
2022-08-20T12:00:51.651Z,36.63
2022-08-20T12:03:20.856Z,36.89
2022-08-20T12:05:50.064Z,36.25
2022-08-20T12:08:27.049Z,35.67
2022-08-20T12:11:00.900Z,35.60
2022-08-20T12:13:47.323Z,35.69
2022-08-20T12:16:19.423Z,35.96
2022-08-20T12:18:49.831Z,37.09
2022-08-20T12:21:19.296Z,36.12
2022-08-20T12:23:48.798Z,35.73
2022-08-20T12:26:19.445Z,35.86
2022-08-20T12:28:48.846Z,34.35
2022-08-20T12:31:17.885Z,33.12
2022-08-20T12:33:46.819Z,32.95
2022-08-20T12:36:16.132Z,32.21
2022-08-20T12:38:45.564Z,32.03
2022-08-20T12:41:14.513Z,31.83
2022-08-20T12:43:45.197Z,32.07
2022-08-20T12:46:14.209Z,31.95
2022-08-20T12:48:43.151Z,31.84
2022-08-20T12:51:12.324Z,31.96
2022-08-20T12:53:41.263Z,31.76
2022-08-20T12:56:10.788Z,31.46
2022-08-20T12:58:39.963Z,31.22
2022-08-20T13:01:10.448Z,30.59
2022-08-20T13:03:43.163Z,29.46
2022-08-20T13:06:14.457Z,27.94
2022-08-20T13:08:43.591Z,27.86
2022-08-20T13:11:12.728Z,27.91
2022-08-20T13:13:43.934Z,28.49
2022-08-20T13:16:14.450Z,28.67
2022-08-20T13:18:43.939Z,29.54
2022-08-20T13:21:13.011Z,30.32
2022-08-20T13:23:42.047Z,30.78
2022-08-20T13:26:11.478Z,31.11
2022-08-20T13:28:40.516Z,31.32
2022-08-20T13:31:09.520Z,31.76
2022-08-20T13:33:40.168Z,31.66
2022-08-20T13:36:09.805Z,31.37
2022-08-20T13:38:39.113Z,31.04
2022-08-20T13:41:08.389Z,31.02
2022-08-20T13:43:37.632Z,31.00
2022-08-20T13:46:06.995Z,30.63
2022-08-20T13:48:36.281Z,30.31
2022-08-20T13:51:07.113Z,30.35
2022-08-20T13:53:36.672Z,30.47
2022-08-20T13:56:06.110Z,30.40
2022-08-20T13:58:35.160Z,30.36
2022-08-20T14:01:04.484Z,29.86
2022-08-20T14:03:35.105Z,30.32
2022-08-20T14:06:06.666Z,30.16
2022-08-20T14:08:36.196Z,29.91
2022-08-20T14:11:05.603Z,30.16
2022-08-20T14:13:34.715Z,30.30
2022-08-20T14:16:04.110Z,31.07
2022-08-20T14:18:34.372Z,32.23
2022-08-20T14:21:03.525Z,31.79
2022-08-20T14:23:36.151Z,30.83
2022-08-20T14:26:06.443Z,30.33
2022-08-20T14:28:35.870Z,29.94
2022-08-20T14:31:04.963Z,29.66
2022-08-20T14:33:36.052Z,29.44
2022-08-20T14:36:06.530Z,29.25
2022-08-20T14:38:38.922Z,29.35
2022-08-20T14:41:08.413Z,29.49
2022-08-20T14:43:37.416Z,29.81
2022-08-20T14:46:08.525Z,29.87
2022-08-20T14:48:37.816Z,29.98
2022-08-20T14:51:09.920Z,29.79
2022-08-20T14:53:40.814Z,29.72
2022-08-20T14:56:10.046Z,29.40
2022-08-20T14:58:39.166Z,28.76
2022-08-20T15:01:08.675Z,28.70
2022-08-20T15:03:37.813Z,28.70
2022-08-20T15:06:20.391Z,29.18
2022-08-20T15:08:52.900Z,29.46
2022-08-20T15:11:22.765Z,29.49
2022-08-20T15:13:54.251Z,29.38
2022-08-20T15:16:23.714Z,28.77
2022-08-20T15:18:58.142Z,28.33
2022-08-20T15:21:29.259Z,28.23
2022-08-20T15:24:18.993Z,28.61
2022-08-20T15:26:49.216Z,29.01
2022-08-20T15:29:23.334Z,29.22
2022-08-20T15:31:53.206Z,29.54
2022-08-20T15:34:22.719Z,29.78
2022-08-20T15:36:51.646Z,30.05
2022-08-20T15:39:22.134Z,30.32
2022-08-20T15:41:51.603Z,30.28
2022-08-20T15:44:20.646Z,30.40
2022-08-20T15:46:49.721Z,30.41
2022-08-20T15:49:19.282Z,29.91
2022-08-20T15:51:50.734Z,29.61
2022-08-20T15:54:25.195Z,29.97
2022-08-20T15:57:03.931Z,30.03
2022-08-20T15:59:50.120Z,29.70
2022-08-20T16:02:40.865Z,30.15
2022-08-20T16:05:20.617Z,30.38
2022-08-20T16:08:00.978Z,30.40
2022-08-20T16:10:41.342Z,30.64
2022-08-20T16:13:21.535Z,30.79
2022-08-20T16:15:56.268Z,30.41
2022-08-20T16:18:31.034Z,30.46
2022-08-20T16:21:03.818Z,30.05
2022-08-20T16:23:37.371Z,30.03
2022-08-20T16:26:20.616Z,30.07
2022-08-20T16:28:59.279Z,29.12
2022-08-20T16:31:35.428Z,28.96
2022-08-20T16:34:32.360Z,28.82
2022-08-20T16:37:12.176Z,28.91
2022-08-20T16:39:49.746Z,28.78
2022-08-20T16:42:25.017Z,28.90
2022-08-20T16:44:56.501Z,28.86
2022-08-20T16:47:30.715Z,29.06
2022-08-20T16:50:03.674Z,29.09
2022-08-20T16:52:33.802Z,29.06
2022-08-20T16:55:03.032Z,28.75
2022-08-20T16:57:34.590Z,28.86
2022-08-20T17:00:12.019Z,28.93
2022-08-20T17:02:54.486Z,28.42
2022-08-20T17:05:26.366Z,28.40
2022-08-20T17:08:04.971Z,28.60
2022-08-20T17:10:37.533Z,28.52
2022-08-20T17:13:23.504Z,28.67
2022-08-20T17:15:59.913Z,28.39
2022-08-20T17:18:31.476Z,28.39
2022-08-20T17:21:06.073Z,28.30
2022-08-20T17:23:54.582Z,28.26
2022-08-20T17:26:32.743Z,28.21
2022-08-20T17:29:12.891Z,28.08
2022-08-20T17:31:45.900Z,28.09
2022-08-20T17:34:17.282Z,27.78
2022-08-20T17:36:54.717Z,27.63
2022-08-20T17:39:25.814Z,27.64
2022-08-20T17:42:04.307Z,27.64
2022-08-20T17:44:38.753Z,27.32
2022-08-20T17:47:13.689Z,27.26
2022-08-20T17:50:00.476Z,27.01
2022-08-20T17:52:42.902Z,26.95
2022-08-20T17:55:13.866Z,26.85
2022-08-20T17:57:47.348Z,26.80
2022-08-20T18:00:28.601Z,26.69
2022-08-20T18:03:02.195Z,26.68
2022-08-20T18:05:36.404Z,26.58
2022-08-20T18:08:18.028Z,26.43
2022-08-20T18:10:57.512Z,26.54
2022-08-20T18:13:44.996Z,26.30
2022-08-20T18:16:27.338Z,26.46
2022-08-20T18:19:03.801Z,26.45
2022-08-20T18:21:57.487Z,26.44
2022-08-20T18:24:31.382Z,26.50
2022-08-20T18:27:03.847Z,26.55
2022-08-20T18:29:42.345Z,26.57
2022-08-20T18:32:29.627Z,26.54
2022-08-20T18:35:11.092Z,26.65
2022-08-20T18:37:41.096Z,26.50
2022-08-20T18:40:23.611Z,26.62
2022-08-20T18:42:52.910Z,26.61
2022-08-20T18:45:35.617Z,26.62
2022-08-20T18:48:07.839Z,26.60
2022-08-20T18:50:48.951Z,26.52
2022-08-20T18:53:21.759Z,26.54
2022-08-20T18:56:03.754Z,26.54
2022-08-20T18:58:35.611Z,26.53
2022-08-20T19:01:13.005Z,26.47
2022-08-20T19:03:48.500Z,26.37
2022-08-20T19:06:40.460Z,26.38
2022-08-20T19:09:19.072Z,26.49
2022-08-20T19:12:12.839Z,26.48
2022-08-20T19:15:07.445Z,26.28
2022-08-20T19:18:03.733Z,26.33
2022-08-20T19:20:38.263Z,26.31
2022-08-20T19:23:10.398Z,26.26
2022-08-20T19:25:44.662Z,26.25
2022-08-20T19:28:24.337Z,26.35
2022-08-20T19:30:54.095Z,26.13
2022-08-20T19:33:32.733Z,26.03
2022-08-20T19:36:19.390Z,26.13
2022-08-20T19:38:53.791Z,25.94
2022-08-20T19:41:31.163Z,25.75
2022-08-20T19:44:01.711Z,25.74
2022-08-20T19:46:35.217Z,25.75
2022-08-20T19:49:18.309Z,25.71
2022-08-20T19:52:02.084Z,25.67
2022-08-20T19:54:32.207Z,25.54
2022-08-20T19:57:06.230Z,25.50
2022-08-20T19:59:36.381Z,25.51
2022-08-20T20:02:20.622Z,25.48
2022-08-20T20:04:55.446Z,25.37
2022-08-20T20:07:36.894Z,25.54
2022-08-20T20:10:09.809Z,25.51
2022-08-20T20:12:42.691Z,25.51
2022-08-20T20:15:12.519Z,25.50
2022-08-20T20:17:43.255Z,25.48
2022-08-20T20:20:29.462Z,25.58
2022-08-20T20:23:06.873Z,25.45
2022-08-20T20:25:43.366Z,25.54
2022-08-20T20:28:18.310Z,25.45
2022-08-20T20:30:49.531Z,25.41
2022-08-20T20:33:23.935Z,25.42
2022-08-20T20:36:06.132Z,25.53
2022-08-20T20:38:39.424Z,25.37
2022-08-20T20:41:21.808Z,25.54
2022-08-20T20:44:02.404Z,25.37
2022-08-20T20:46:34.672Z,25.38
2022-08-20T20:49:16.909Z,25.45
2022-08-20T20:51:58.776Z,25.38
2022-08-20T20:54:40.702Z,25.41
2022-08-20T20:57:36.297Z,25.24
2022-08-20T21:00:12.750Z,25.22
2022-08-20T21:02:45.571Z,25.26
2022-08-20T21:05:17.309Z,25.20
2022-08-20T21:07:50.644Z,25.13
2022-08-20T21:10:23.872Z,25.20
2022-08-20T21:12:53.637Z,25.18
2022-08-20T21:15:25.084Z,25.21
2022-08-20T21:17:55.187Z,25.17
2022-08-20T21:20:24.802Z,25.13
2022-08-20T21:22:54.192Z,25.16
2022-08-20T21:25:25.578Z,25.25
2022-08-20T21:27:55.992Z,25.12
2022-08-20T21:30:27.019Z,25.15
2022-08-20T21:32:56.706Z,25.20
2022-08-20T21:35:26.561Z,25.18
2022-08-20T21:37:55.831Z,25.11
2022-08-20T21:40:28.301Z,25.04
2022-08-20T21:42:58.036Z,24.92
2022-08-20T21:45:28.664Z,24.80
2022-08-20T21:47:58.363Z,24.82
2022-08-20T21:50:28.860Z,24.90
2022-08-20T21:52:59.871Z,24.84
2022-08-20T21:55:39.287Z,25.08
2022-08-20T21:58:10.243Z,24.91
2022-08-20T22:00:54.865Z,24.89
2022-08-20T22:03:25.741Z,24.86
2022-08-20T22:05:54.993Z,24.71
2022-08-20T22:08:28.390Z,24.81
2022-08-20T22:11:01.333Z,24.98
2022-08-20T22:13:33.273Z,24.93
2022-08-20T22:16:04.521Z,24.84
2022-08-20T22:18:34.303Z,24.91
2022-08-20T22:21:03.872Z,24.75
2022-08-20T22:23:32.975Z,24.74
2022-08-20T22:26:03.556Z,24.92
2022-08-20T22:28:32.855Z,24.91
2022-08-20T22:31:02.139Z,24.73
2022-08-20T22:33:32.408Z,24.63
2022-08-20T22:36:03.073Z,24.85
2022-08-20T22:38:32.133Z,24.71
2022-08-20T22:41:07.588Z,24.74
2022-08-20T22:43:55.605Z,24.99
2022-08-20T22:46:27.349Z,24.92
2022-08-20T22:48:57.057Z,24.85
2022-08-20T22:51:35.481Z,24.97
2022-08-20T22:54:11.509Z,25.01
2022-08-20T22:56:42.070Z,25.00
2022-08-20T22:59:13.513Z,24.84
2022-08-20T23:01:46.899Z,24.92
2022-08-20T23:04:22.932Z,24.92
2022-08-20T23:06:52.177Z,24.89
2022-08-20T23:09:21.637Z,24.99
2022-08-20T23:11:52.359Z,24.87
2022-08-20T23:14:21.719Z,24.78
2022-08-20T23:16:59.499Z,24.79
2022-08-20T23:19:28.701Z,24.89
2022-08-20T23:21:58.063Z,24.77
2022-08-20T23:24:27.154Z,24.80
2022-08-20T23:26:57.979Z,24.82
2022-08-20T23:29:27.738Z,24.91
2022-08-20T23:31:58.380Z,24.87
2022-08-20T23:34:28.279Z,24.84
2022-08-20T23:36:59.526Z,24.91
2022-08-20T23:39:29.585Z,24.85
2022-08-20T23:42:01.470Z,24.68
2022-08-20T23:44:30.812Z,24.58
2022-08-20T23:47:03.128Z,24.57
2022-08-20T23:49:33.122Z,24.80
2022-08-20T23:52:03.084Z,24.86
2022-08-20T23:54:33.931Z,24.89
2022-08-20T23:57:08.082Z,24.98
2022-08-20T23:59:39.008Z,25.10
